sensor_id;sensor_type;location;lat;lon;timestamp;pressure;altitude;pressure_sealevel;temperature;humidity
26719;BME280;14326;50.794;6.060;2022-11-15T00:00:56;98958.47;;;11.99;100.00
26719;BME280;14326;50.794;6.060;2022-11-15T00:03:26;98947.81;;;11.97;100.00
26719;BME280;14326;50.794;6.060;2022-11-15T00:05:53;98953.13;;;11.99;100.00
26719;BME280;14326;50.794;6.060;2022-11-15T00:08:21;98952.25;;;11.97;100.00
26719;BME280;14326;50.794;6.060;2022-11-15T00:10:55;98946.06;;;11.93;100.00
26719;BME280;14326;50.794;6.060;2022-11-15T00:13:23;98943.41;;;11.95;100.00
26719;BME280;14326;50.794;6.060;2022-11-15T00:15:51;98938.03;;;12.01;100.00
26719;BME280;14326;50.794;6.060;2022-11-15T00:18:18;98933.59;;;12.01;100.00
26719;BME280;14326;50.794;6.060;2022-11-15T00:20:45;98938.00;;;12.04;100.00
26719;BME280;14326;50.794;6.060;2022-11-15T00:23:11;98937.91;;;12.14;100.00
26719;BME280;14326;50.794;6.060;2022-11-15T00:25:39;98931.72;;;12.09;100.00
26719;BME280;14326;50.794;6.060;2022-11-15T00:28:07;98933.50;;;12.13;100.00
26719;BME280;14326;50.794;6.060;2022-11-15T00:30:34;98936.16;;;12.13;100.00
26719;BME280;14326;50.794;6.060;2022-11-15T00:33:02;98935.25;;;12.13;100.00
26719;BME280;14326;50.794;6.060;2022-11-15T00:35:31;98929.00;;;12.15;100.00
26719;BME280;14326;50.794;6.060;2022-11-15T00:37:59;98938.75;;;12.19;100.00
26719;BME280;14326;50.794;6.060;2022-11-15T00:40:26;98927.22;;;12.14;100.00
26719;BME280;14326;50.794;6.060;2022-11-15T00:42:54;98920.06;;;12.19;100.00
26719;BME280;14326;50.794;6.060;2022-11-15T00:45:21;98917.44;;;12.18;100.00
26719;BME280;14326;50.794;6.060;2022-11-15T00:47:47;98927.22;;;12.14;100.00
26719;BME280;14326;50.794;6.060;2022-11-15T00:50:15;98923.66;;;12.17;100.00
26719;BME280;14326;50.794;6.060;2022-11-15T00:52:42;98920.13;;;12.16;100.00
26719;BME280;14326;50.794;6.060;2022-11-15T00:55:10;98928.16;;;12.13;100.00
26719;BME280;14326;50.794;6.060;2022-11-15T00:57:39;98919.28;;;12.08;100.00
26719;BME280;14326;50.794;6.060;2022-11-15T01:00:08;98916.66;;;12.04;100.00
26719;BME280;14326;50.794;6.060;2022-11-15T01:02:35;98922.91;;;12.01;100.00
26719;BME280;14326;50.794;6.060;2022-11-15T01:05:02;98923.84;;;11.94;100.00
26719;BME280;14326;50.794;6.060;2022-11-15T01:07:29;98922.97;;;11.90;100.00
26719;BME280;14326;50.794;6.060;2022-11-15T01:09:56;98920.31;;;11.92;100.00
26719;BME280;14326;50.794;6.060;2022-11-15T01:12:22;98917.69;;;11.86;100.00
26719;BME280;14326;50.794;6.060;2022-11-15T01:14:49;98908.84;;;11.82;100.00
26719;BME280;14326;50.794;6.060;2022-11-15T01:17:17;98912.44;;;11.77;100.00
26719;BME280;14326;50.794;6.060;2022-11-15T01:19:44;98907.97;;;11.83;100.00
26719;BME280;14326;50.794;6.060;2022-11-15T01:22:10;98914.13;;;11.87;100.00
26719;BME280;14326;50.794;6.060;2022-11-15T01:24:37;98908.81;;;11.88;100.00
26719;BME280;14326;50.794;6.060;2022-11-15T01:27:04;98908.81;;;11.87;100.00
26719;BME280;14326;50.794;6.060;2022-11-15T01:29:31;98911.44;;;11.90;100.00
26719;BME280;14326;50.794;6.060;2022-11-15T01:31:58;98904.31;;;11.92;100.00
26719;BME280;14326;50.794;6.060;2022-11-15T01:34:27;98904.31;;;11.94;100.00
26719;BME280;14326;50.794;6.060;2022-11-15T01:36:54;98902.53;;;11.91;100.00
26719;BME280;14326;50.794;6.060;2022-11-15T01:39:21;98889.25;;;11.88;100.00
26719;BME280;14326;50.794;6.060;2022-11-15T01:41:48;98885.72;;;11.86;100.00
26719;BME280;14326;50.794;6.060;2022-11-15T01:44:43;98887.50;;;11.85;100.00
26719;BME280;14326;50.794;6.060;2022-11-15T01:47:15;98885.72;;;11.84;100.00
26719;BME280;14326;50.794;6.060;2022-11-15T01:49:50;98888.44;;;11.80;100.00
26719;BME280;14326;50.794;6.060;2022-11-15T01:52:21;98874.25;;;11.78;100.00
26719;BME280;14326;50.794;6.060;2022-11-15T01:54:52;98880.44;;;11.83;100.00
26719;BME280;14326;50.794;6.060;2022-11-15T01:57:20;98880.47;;;11.77;100.00
26719;BME280;14326;50.794;6.060;2022-11-15T01:59:47;98883.09;;;11.72;100.00
26719;BME280;14326;50.794;6.060;2022-11-15T02:02:14;98880.47;;;11.75;100.00
26719;BME280;14326;50.794;6.060;2022-11-15T02:04:42;98878.72;;;11.70;100.00
26719;BME280;14326;50.794;6.060;2022-11-15T02:07:13;98886.69;;;11.67;100.00
26719;BME280;14326;50.794;6.060;2022-11-15T02:09:41;98878.75;;;11.64;100.00
26719;BME280;14326;50.794;6.060;2022-11-15T02:12:09;98877.00;;;11.58;100.00
26719;BME280;14326;50.794;6.060;2022-11-15T02:14:38;98881.47;;;11.55;100.00
26719;BME280;14326;50.794;6.060;2022-11-15T02:17:18;98877.06;;;11.52;100.00
26719;BME280;14326;50.794;6.060;2022-11-15T02:20:16;98875.28;;;11.51;100.00
26719;BME280;14326;50.794;6.060;2022-11-15T02:23:04;98879.72;;;11.52;100.00
26719;BME280;14326;50.794;6.060;2022-11-15T02:25:41;98880.59;;;11.51;100.00
26719;BME280;14326;50.794;6.060;2022-11-15T02:28:26;98879.75;;;11.47;100.00
26719;BME280;14326;50.794;6.060;2022-11-15T02:31:00;98879.72;;;11.54;100.00
26719;BME280;14326;50.794;6.060;2022-11-15T02:33:35;98881.50;;;11.53;100.00
26719;BME280;14326;50.794;6.060;2022-11-15T02:36:08;98877.91;;;11.57;100.00
26719;BME280;14326;50.794;6.060;2022-11-15T02:38:40;98878.75;;;11.62;100.00
26719;BME280;14326;50.794;6.060;2022-11-15T02:41:14;98876.97;;;11.66;100.00
26719;BME280;14326;50.794;6.060;2022-11-15T02:43:46;98882.25;;;11.67;100.00
26719;BME280;14326;50.794;6.060;2022-11-15T02:46:23;98872.50;;;11.68;100.00
26719;BME280;14326;50.794;6.060;2022-11-15T02:49:13;98872.47;;;11.74;100.00
26719;BME280;14326;50.794;6.060;2022-11-15T02:51:43;98871.59;;;11.75;100.00
26719;BME280;14326;50.794;6.060;2022-11-15T02:54:12;98867.09;;;11.80;100.00
26719;BME280;14326;50.794;6.060;2022-11-15T02:56:40;98868.03;;;11.74;100.00
26719;BME280;14326;50.794;6.060;2022-11-15T03:02:42;98873.28;;;11.85;100.00
26719;BME280;14326;50.794;6.060;2022-11-15T03:05:18;98872.44;;;11.83;100.00
26719;BME280;14326;50.794;6.060;2022-11-15T03:07:53;98861.78;;;11.80;100.00
26719;BME280;14326;50.794;6.060;2022-11-15T03:10:25;98863.56;;;11.81;100.00
26719;BME280;14326;50.794;6.060;2022-11-15T03:12:55;98859.97;;;11.85;100.00
26719;BME280;14326;50.794;6.060;2022-11-15T03:15:27;98855.56;;;11.82;100.00
26719;BME280;14326;50.794;6.060;2022-11-15T03:17:58;98852.94;;;11.78;100.00
26719;BME280;14326;50.794;6.060;2022-11-15T03:20:27;98857.38;;;11.77;100.00
26719;BME280;14326;50.794;6.060;2022-11-15T03:22:58;98852.91;;;11.81;100.00
26719;BME280;14326;50.794;6.060;2022-11-15T03:25:28;98854.69;;;11.79;100.00
26719;BME280;14326;50.794;6.060;2022-11-15T03:27:58;98855.56;;;11.79;100.00
26719;BME280;14326;50.794;6.060;2022-11-15T03:30:30;98853.84;;;11.75;100.00
26719;BME280;14326;50.794;6.060;2022-11-15T03:33:02;98846.69;;;11.73;100.00
26719;BME280;14326;50.794;6.060;2022-11-15T03:35:33;98845.84;;;11.68;100.00
26719;BME280;14326;50.794;6.060;2022-11-15T03:38:06;98838.75;;;11.68;100.00
26719;BME280;14326;50.794;6.060;2022-11-15T03:40:39;98834.31;;;11.70;100.00
26719;BME280;14326;50.794;6.060;2022-11-15T03:43:22;98832.53;;;11.71;100.00
26719;BME280;14326;50.794;6.060;2022-11-15T03:45:54;98845.84;;;11.68;100.00
26719;BME280;14326;50.794;6.060;2022-11-15T03:48:26;98836.09;;;11.67;100.00
26719;BME280;14326;50.794;6.060;2022-11-15T03:50:55;98829.91;;;11.65;100.00
26719;BME280;14326;50.794;6.060;2022-11-15T03:53:22;98829.03;;;11.61;100.00
26719;BME280;14326;50.794;6.060;2022-11-15T03:55:48;98835.28;;;11.59;100.00
26719;BME280;14326;50.794;6.060;2022-11-15T03:58:15;98833.50;;;11.59;100.00
26719;BME280;14326;50.794;6.060;2022-11-15T04:00:42;98837.06;;;11.58;100.00
26719;BME280;14326;50.794;6.060;2022-11-15T04:03:08;98845.06;;;11.55;100.00
26719;BME280;14326;50.794;6.060;2022-11-15T04:05:36;98837.06;;;11.57;100.00
26719;BME280;14326;50.794;6.060;2022-11-15T04:08:09;98836.19;;;11.55;100.00
26719;BME280;14326;50.794;6.060;2022-11-15T04:10:40;98835.34;;;11.53;100.00
26719;BME280;14326;50.794;6.060;2022-11-15T04:13:13;98833.56;;;11.53;100.00
26719;BME280;14326;50.794;6.060;2022-11-15T04:16:00;98827.34;;;11.53;100.00
26719;BME280;14326;50.794;6.060;2022-11-15T04:18:33;98833.56;;;11.52;100.00
26719;BME280;14326;50.794;6.060;2022-11-15T04:21:12;98840.66;;;11.49;100.00
26719;BME280;14326;50.794;6.060;2022-11-15T04:24:07;98830.94;;;11.48;100.00
26719;BME280;14326;50.794;6.060;2022-11-15T04:26:46;98831.78;;;11.52;100.00
26719;BME280;14326;50.794;6.060;2022-11-15T04:29:16;98834.44;;;11.54;100.00
26719;BME280;14326;50.794;6.060;2022-11-15T04:32:06;98842.41;;;11.55;100.00
26719;BME280;14326;50.794;6.060;2022-11-15T04:34:40;98837.03;;;11.63;100.00
26719;BME280;14326;50.794;6.060;2022-11-15T04:37:11;98837.91;;;11.66;100.00
26719;BME280;14326;50.794;6.060;2022-11-15T04:39:37;98843.22;;;11.66;100.00
26719;BME280;14326;50.794;6.060;2022-11-15T04:42:04;98842.31;;;11.69;100.00
26719;BME280;14326;50.794;6.060;2022-11-15T04:44:31;98844.06;;;11.70;100.00
26719;BME280;14326;50.794;6.060;2022-11-15T04:47:13;98843.19;;;11.71;100.00
26719;BME280;14326;50.794;6.060;2022-11-15T04:49:40;98832.50;;;11.72;100.00
26719;BME280;14326;50.794;6.060;2022-11-15T04:52:06;98839.63;;;11.69;100.00
26719;BME280;14326;50.794;6.060;2022-11-15T04:54:35;98832.56;;;11.66;100.00
26719;BME280;14326;50.794;6.060;2022-11-15T04:57:02;98834.34;;;11.64;100.00
26719;BME280;14326;50.794;6.060;2022-11-15T04:59:30;98833.47;;;11.61;100.00
26719;BME280;14326;50.794;6.060;2022-11-15T05:01:56;98829.97;;;11.59;100.00
26719;BME280;14326;50.794;6.060;2022-11-15T05:04:23;98843.28;;;11.59;100.00
26719;BME280;14326;50.794;6.060;2022-11-15T05:06:50;98835.28;;;11.57;100.00
26719;BME280;14326;50.794;6.060;2022-11-15T05:09:17;98830.00;;;11.53;100.00
26719;BME280;14326;50.794;6.060;2022-11-15T05:11:45;98835.34;;;11.53;100.00
26719;BME280;14326;50.794;6.060;2022-11-15T05:14:12;98837.16;;;11.47;100.00
26719;BME280;14326;50.794;6.060;2022-11-15T05:16:39;98828.28;;;11.44;100.00
26719;BME280;14326;50.794;6.060;2022-11-15T05:19:06;98838.94;;;11.45;100.00
26719;BME280;14326;50.794;6.060;2022-11-15T05:21:33;98837.09;;;11.50;100.00
26719;BME280;14326;50.794;6.060;2022-11-15T05:24:00;98836.19;;;11.55;100.00
26719;BME280;14326;50.794;6.060;2022-11-15T05:26:27;98837.97;;;11.56;100.00
26719;BME280;14326;50.794;6.060;2022-11-15T05:28:57;98833.53;;;11.55;100.00
26719;BME280;14326;50.794;6.060;2022-11-15T05:31:25;98829.97;;;11.56;100.00
26719;BME280;14326;50.794;6.060;2022-11-15T05:33:53;98839.72;;;11.55;100.00
26719;BME280;14326;50.794;6.060;2022-11-15T05:36:29;98840.56;;;11.62;100.00
26719;BME280;14326;50.794;6.060;2022-11-15T05:38:58;98835.25;;;11.65;100.00
26719;BME280;14326;50.794;6.060;2022-11-15T05:41:27;98838.75;;;11.68;100.00
26719;BME280;14326;50.794;6.060;2022-11-15T05:43:58;98838.78;;;11.65;100.00
26719;BME280;14326;50.794;6.060;2022-11-15T05:46:26;98833.47;;;11.62;100.00
26719;BME280;14326;50.794;6.060;2022-11-15T05:48:53;98836.19;;;11.56;100.00
26719;BME280;14326;50.794;6.060;2022-11-15T05:51:22;98843.28;;;11.56;100.00
26719;BME280;14326;50.794;6.060;2022-11-15T05:53:49;98840.63;;;11.59;100.00
26719;BME280;14326;50.794;6.060;2022-11-15T05:56:17;98853.94;;;11.57;100.00
26719;BME280;14326;50.794;6.060;2022-11-15T05:58:44;98863.75;;;11.50;100.00
26719;BME280;14326;50.794;6.060;2022-11-15T06:01:12;98860.28;;;11.42;100.00
26719;BME280;14326;50.794;6.060;2022-11-15T06:03:39;98864.75;;;11.33;100.00
26719;BME280;14326;50.794;6.060;2022-11-15T06:06:05;98862.09;;;11.31;100.00
26719;BME280;14326;50.794;6.060;2022-11-15T06:08:32;98884.31;;;11.26;100.00
26719;BME280;14326;50.794;6.060;2022-11-15T06:11:03;98881.69;;;11.18;100.00
26719;BME280;14326;50.794;6.060;2022-11-15T06:13:30;98881.66;;;11.21;100.00
26719;BME280;14326;50.794;6.060;2022-11-15T06:15:57;98887.06;;;11.12;100.00
26719;BME280;14326;50.794;6.060;2022-11-15T06:18:26;98887.94;;;11.09;100.00
26719;BME280;14326;50.794;6.060;2022-11-15T06:20:52;98887.09;;;11.03;100.00
26719;BME280;14326;50.794;6.060;2022-11-15T06:23:19;98891.50;;;11.02;100.00
26719;BME280;14326;50.794;6.060;2022-11-15T06:25:46;98885.34;;;10.96;100.00
26719;BME280;14326;50.794;6.060;2022-11-15T06:28:12;98879.16;;;10.94;100.00
26719;BME280;14326;50.794;6.060;2022-11-15T06:30:39;98875.59;;;10.90;100.00
26719;BME280;14326;50.794;6.060;2022-11-15T06:33:05;98877.41;;;10.87;100.00
26719;BME280;14326;50.794;6.060;2022-11-15T06:35:35;98866.78;;;10.82;100.00
26719;BME280;14326;50.794;6.060;2022-11-15T06:38:03;98870.34;;;10.80;100.00
26719;BME280;14326;50.794;6.060;2022-11-15T06:40:33;98875.66;;;10.78;100.00
26719;BME280;14326;50.794;6.060;2022-11-15T06:42:59;98873.91;;;10.76;100.00
26719;BME280;14326;50.794;6.060;2022-11-15T06:45:26;98876.59;;;10.70;100.00
26719;BME280;14326;50.794;6.060;2022-11-15T06:47:53;98878.38;;;10.66;100.00
26719;BME280;14326;50.794;6.060;2022-11-15T06:50:20;98870.41;;;10.60;100.00
26719;BME280;14326;50.794;6.060;2022-11-15T06:52:48;98883.72;;;10.54;100.00
26719;BME280;14326;50.794;6.060;2022-11-15T06:55:14;98889.94;;;10.53;100.00
26719;BME280;14326;50.794;6.060;2022-11-15T06:57:47;98892.59;;;10.51;100.00
26719;BME280;14326;50.794;6.060;2022-11-15T07:00:15;98894.38;;;10.46;100.00
26719;BME280;14326;50.794;6.060;2022-11-15T07:02:41;98895.25;;;10.45;100.00
26719;BME280;14326;50.794;6.060;2022-11-15T07:05:08;98897.03;;;10.45;100.00
26719;BME280;14326;50.794;6.060;2022-11-15T07:07:35;98895.28;;;10.47;100.00
26719;BME280;14326;50.794;6.060;2022-11-15T07:10:04;98896.16;;;10.47;100.00
26719;BME280;14326;50.794;6.060;2022-11-15T07:12:31;98895.28;;;10.48;100.00
26719;BME280;14326;50.794;6.060;2022-11-15T07:14:57;98905.88;;;10.51;100.00
26719;BME280;14326;50.794;6.060;2022-11-15T07:17:24;98898.78;;;10.52;100.00
26719;BME280;14326;50.794;6.060;2022-11-15T07:19:51;98898.81;;;10.53;100.00
26719;BME280;14326;50.794;6.060;2022-11-15T07:22:17;98903.22;;;10.56;100.00
26719;BME280;14326;50.794;6.060;2022-11-15T07:24:44;98900.56;;;10.56;100.00
26719;BME280;14326;50.794;6.060;2022-11-15T07:27:12;98904.09;;;10.55;100.00
26719;BME280;14326;50.794;6.060;2022-11-15T07:29:38;98905.88;;;10.57;100.00
26719;BME280;14326;50.794;6.060;2022-11-15T07:32:05;98912.94;;;10.61;100.00
26719;BME280;14326;50.794;6.060;2022-11-15T07:34:32;98911.19;;;10.63;100.00
26719;BME280;14326;50.794;6.060;2022-11-15T07:36:58;98908.53;;;10.65;100.00
26719;BME280;14326;50.794;6.060;2022-11-15T07:39:25;98922.69;;;10.61;100.00
26719;BME280;14326;50.794;6.060;2022-11-15T07:41:51;98917.38;;;10.65;100.00
26719;BME280;14326;50.794;6.060;2022-11-15T07:44:40;98908.50;;;10.66;100.00
26719;BME280;14326;50.794;6.060;2022-11-15T07:47:06;98916.47;;;10.68;100.00
26719;BME280;14326;50.794;6.060;2022-11-15T07:49:33;98917.34;;;10.73;100.00
26719;BME280;14326;50.794;6.060;2022-11-15T07:51:59;98912.88;;;10.89;100.00
26719;BME280;14326;50.794;6.060;2022-11-15T07:54:26;98913.75;;;10.94;100.00
26719;BME280;14326;50.794;6.060;2022-11-15T07:56:53;98910.09;;;11.18;100.00
26719;BME280;14326;50.794;6.060;2022-11-15T07:59:19;98908.19;;;11.42;100.00
26719;BME280;14326;50.794;6.060;2022-11-15T08:01:48;98904.47;;;11.68;100.00
26719;BME280;14326;50.794;6.060;2022-11-15T08:04:14;98895.63;;;11.61;99.72
26719;BME280;14326;50.794;6.060;2022-11-15T08:06:41;98900.09;;;11.55;100.00
26719;BME280;14326;50.794;6.060;2022-11-15T08:09:08;98907.28;;;11.43;100.00
26719;BME280;14326;50.794;6.060;2022-11-15T08:11:35;98900.28;;;11.26;100.00
26719;BME280;14326;50.794;6.060;2022-11-15T08:14:01;98892.38;;;11.12;100.00
26719;BME280;14326;50.794;6.060;2022-11-15T08:16:28;98887.13;;;11.00;100.00
26719;BME280;14326;50.794;6.060;2022-11-15T08:18:56;98891.56;;;10.93;100.00
26719;BME280;14326;50.794;6.060;2022-11-15T08:21:23;98888.91;;;10.92;100.00
26719;BME280;14326;50.794;6.060;2022-11-15T08:23:49;98893.34;;;10.93;99.61
26719;BME280;14326;50.794;6.060;2022-11-15T08:26:16;98899.56;;;10.93;100.00
26719;BME280;14326;50.794;6.060;2022-11-15T08:28:43;98896.88;;;10.90;100.00
26719;BME280;14326;50.794;6.060;2022-11-15T08:31:13;98901.38;;;10.84;100.00
26719;BME280;14326;50.794;6.060;2022-11-15T08:33:40;98900.47;;;10.80;100.00
26719;BME280;14326;50.794;6.060;2022-11-15T08:36:13;98896.06;;;10.82;100.00
26719;BME280;14326;50.794;6.060;2022-11-15T08:38:40;98893.38;;;10.87;99.77
26719;BME280;14326;50.794;6.060;2022-11-15T08:41:11;98897.81;;;10.82;100.00
26719;BME280;14326;50.794;6.060;2022-11-15T08:43:39;98888.09;;;10.78;100.00
26719;BME280;14326;50.794;6.060;2022-11-15T08:46:08;98884.53;;;10.76;99.49
26719;BME280;14326;50.794;6.060;2022-11-15T08:48:37;98887.19;;;10.73;100.00
26719;BME280;14326;50.794;6.060;2022-11-15T08:51:04;98881.00;;;10.72;100.00
26719;BME280;14326;50.794;6.060;2022-11-15T08:53:33;98870.34;;;10.78;99.35
26719;BME280;14326;50.794;6.060;2022-11-15T08:56:00;98871.22;;;10.79;99.17
26719;BME280;14326;50.794;6.060;2022-11-15T08:58:27;98865.94;;;10.76;99.19
26719;BME280;14326;50.794;6.060;2022-11-15T09:00:53;98870.34;;;10.81;98.58
26719;BME280;14326;50.794;6.060;2022-11-15T09:03:20;98872.09;;;10.85;97.74
26719;BME280;14326;50.794;6.060;2022-11-15T09:05:47;98861.44;;;10.88;96.62
26719;BME280;14326;50.794;6.060;2022-11-15T09:08:13;98855.19;;;10.97;95.65
26719;BME280;14326;50.794;6.060;2022-11-15T09:10:41;98852.56;;;10.94;94.18
26719;BME280;14326;50.794;6.060;2022-11-15T09:13:08;98839.22;;;10.98;93.02
26719;BME280;14326;50.794;6.060;2022-11-15T09:15:35;98842.75;;;11.00;93.01
26719;BME280;14326;50.794;6.060;2022-11-15T09:18:02;98833.91;;;11.00;94.29
26719;BME280;14326;50.794;6.060;2022-11-15T09:20:28;98824.09;;;11.06;92.63
26719;BME280;14326;50.794;6.060;2022-11-15T09:22:59;98826.72;;;11.11;92.32
26719;BME280;14326;50.794;6.060;2022-11-15T09:25:26;98818.75;;;11.13;91.90
26719;BME280;14326;50.794;6.060;2022-11-15T09:27:55;98827.59;;;11.18;91.41
26719;BME280;14326;50.794;6.060;2022-11-15T09:30:23;98824.03;;;11.19;88.99
26719;BME280;14326;50.794;6.060;2022-11-15T09:32:50;98824.03;;;11.14;87.97
26719;BME280;14326;50.794;6.060;2022-11-15T09:35:16;98824.03;;;11.19;87.03
26719;BME280;14326;50.794;6.060;2022-11-15T09:37:43;98822.22;;;11.21;86.28
26719;BME280;14326;50.794;6.060;2022-11-15T09:40:12;98822.19;;;11.25;84.97
26719;BME280;14326;50.794;6.060;2022-11-15T09:42:55;98816.88;;;11.25;85.94
26719;BME280;14326;50.794;6.060;2022-11-15T09:45:32;98814.19;;;11.30;84.81
26719;BME280;14326;50.794;6.060;2022-11-15T09:48:13;98819.53;;;11.30;83.39
26719;BME280;14326;50.794;6.060;2022-11-15T09:50:48;98811.50;;;11.33;83.99
26719;BME280;14326;50.794;6.060;2022-11-15T09:53:22;98823.91;;;11.35;83.69
26719;BME280;14326;50.794;6.060;2022-11-15T09:55:57;98820.28;;;11.44;81.42
26719;BME280;14326;50.794;6.060;2022-11-15T09:58:34;98809.63;;;11.47;81.55
26719;BME280;14326;50.794;6.060;2022-11-15T10:01:06;98812.25;;;11.52;80.80
26719;BME280;14326;50.794;6.060;2022-11-15T10:03:38;98818.44;;;11.57;80.13
26719;BME280;14326;50.794;6.060;2022-11-15T10:06:10;98812.16;;;11.61;79.52
26719;BME280;14326;50.794;6.060;2022-11-15T10:08:50;98806.88;;;11.55;76.31
26719;BME280;14326;50.794;6.060;2022-11-15T10:11:21;98806.84;;;11.64;75.33
26719;BME280;14326;50.794;6.060;2022-11-15T10:13:52;98808.59;;;11.63;76.01
26719;BME280;14326;50.794;6.060;2022-11-15T10:16:33;98798.78;;;11.70;75.59
26719;BME280;14326;50.794;6.060;2022-11-15T10:19:09;98803.22;;;11.77;75.50
26719;BME280;14326;50.794;6.060;2022-11-15T10:21:50;98792.50;;;11.80;74.06
26719;BME280;14326;50.794;6.060;2022-11-15T10:24:26;98788.00;;;11.85;74.14
26719;BME280;14326;50.794;6.060;2022-11-15T10:26:54;98785.34;;;11.88;74.11
26719;BME280;14326;50.794;6.060;2022-11-15T10:29:24;98782.66;;;11.89;71.57
26719;BME280;14326;50.794;6.060;2022-11-15T10:31:51;98776.41;;;11.94;72.95
26719;BME280;14326;50.794;6.060;2022-11-15T10:34:19;98779.00;;;12.00;72.59
26719;BME280;14326;50.794;6.060;2022-11-15T10:36:54;98757.63;;;12.07;73.52
26719;BME280;14326;50.794;6.060;2022-11-15T10:39:21;98764.66;;;12.13;73.66
26719;BME280;14326;50.794;6.060;2022-11-15T10:41:48;98763.72;;;12.17;71.65
26719;BME280;14326;50.794;6.060;2022-11-15T10:44:20;98752.03;;;12.27;72.44
26719;BME280;14326;50.794;6.060;2022-11-15T10:47:05;98751.94;;;12.36;72.94
26719;BME280;14326;50.794;6.060;2022-11-15T10:49:34;98757.22;;;12.41;72.50
26719;BME280;14326;50.794;6.060;2022-11-15T10:52:04;98750.84;;;12.51;70.73
26719;BME280;14326;50.794;6.060;2022-11-15T10:54:41;98735.72;;;12.53;70.91
26719;BME280;14326;50.794;6.060;2022-11-15T10:57:12;98737.50;;;12.54;69.00
26719;BME280;14326;50.794;6.060;2022-11-15T10:59:45;98733.88;;;12.59;67.66
26719;BME280;14326;50.794;6.060;2022-11-15T11:02:34;98731.22;;;12.56;68.74
26719;BME280;14326;50.794;6.060;2022-11-15T11:05:03;98734.75;;;12.60;68.84
26719;BME280;14326;50.794;6.060;2022-11-15T11:07:34;98723.19;;;12.59;68.33
26719;BME280;14326;50.794;6.060;2022-11-15T11:10:05;98709.88;;;12.58;69.22
26719;BME280;14326;50.794;6.060;2022-11-15T11:12:48;98718.66;;;12.66;68.23
26719;BME280;14326;50.794;6.060;2022-11-15T11:15:20;98715.06;;;12.67;68.69
26719;BME280;14326;50.794;6.060;2022-11-15T11:17:58;98702.66;;;12.66;68.23
26719;BME280;14326;50.794;6.060;2022-11-15T11:20:36;98708.72;;;12.76;67.51
26719;BME280;14326;50.794;6.060;2022-11-15T11:23:32;98703.13;;;12.92;66.71
26719;BME280;14326;50.794;6.060;2022-11-15T11:26:13;98681.66;;;13.01;65.32
26719;BME280;14326;50.794;6.060;2022-11-15T11:28:49;98675.25;;;13.11;65.16
26719;BME280;14326;50.794;6.060;2022-11-15T11:31:29;98678.81;;;13.13;67.55
26719;BME280;14326;50.794;6.060;2022-11-15T11:34:07;98666.31;;;13.16;68.23
26719;BME280;14326;50.794;6.060;2022-11-15T11:36:55;98659.19;;;13.18;68.73
26719;BME280;14326;50.794;6.060;2022-11-15T11:39:31;98650.19;;;13.22;67.89
26719;BME280;14326;50.794;6.060;2022-11-15T11:42:07;98652.84;;;13.25;69.85
26719;BME280;14326;50.794;6.060;2022-11-15T11:44:50;98637.59;;;13.30;69.05
26719;BME280;14326;50.794;6.060;2022-11-15T11:47:23;98635.66;;;13.38;71.06
26719;BME280;14326;50.794;6.060;2022-11-15T11:49:53;98626.69;;;13.42;69.81
26719;BME280;14326;50.794;6.060;2022-11-15T11:52:25;98623.94;;;13.46;70.33
26719;BME280;14326;50.794;6.060;2022-11-15T11:55:01;98630.06;;;13.53;71.74
26719;BME280;14326;50.794;6.060;2022-11-15T11:57:36;98623.81;;;13.52;72.02
26719;BME280;14326;50.794;6.060;2022-11-15T12:00:15;98614.81;;;13.58;72.05
26719;BME280;14326;50.794;6.060;2022-11-15T12:02:49;98602.31;;;13.60;72.22
26719;BME280;14326;50.794;6.060;2022-11-15T12:05:25;98596.91;;;13.62;72.85
26719;BME280;14326;50.794;6.060;2022-11-15T12:08:00;98576.53;;;13.56;73.20
26719;BME280;14326;50.794;6.060;2022-11-15T12:10:29;98572.09;;;13.55;73.59
26719;BME280;14326;50.794;6.060;2022-11-15T12:13:02;98568.59;;;13.55;73.22
26719;BME280;14326;50.794;6.060;2022-11-15T12:15:32;98566.84;;;13.52;73.74
26719;BME280;14326;50.794;6.060;2022-11-15T12:18:02;98558.81;;;13.52;74.14
26719;BME280;14326;50.794;6.060;2022-11-15T12:20:36;98560.72;;;13.47;74.13
26719;BME280;14326;50.794;6.060;2022-11-15T12:23:11;98575.84;;;13.46;75.11
26719;BME280;14326;50.794;6.060;2022-11-15T12:25:45;98550.84;;;13.50;76.09
26719;BME280;14326;50.794;6.060;2022-11-15T12:28:18;98551.59;;;13.57;76.16
26719;BME280;14326;50.794;6.060;2022-11-15T12:30:53;98552.34;;;13.64;75.46
26719;BME280;14326;50.794;6.060;2022-11-15T12:33:30;98549.53;;;13.71;76.16
26719;BME280;14326;50.794;6.060;2022-11-15T12:36:00;98544.75;;;13.85;76.02
26719;BME280;14326;50.794;6.060;2022-11-15T12:41:16;98540.94;;;13.97;74.38
26719;BME280;14326;50.794;6.060;2022-11-15T12:43:44;98543.53;;;14.02;73.98
26719;BME280;14326;50.794;6.060;2022-11-15T12:46:19;98545.25;;;14.04;74.53
26719;BME280;14326;50.794;6.060;2022-11-15T12:48:50;98533.53;;;14.10;74.11
26719;BME280;14326;50.794;6.060;2022-11-15T12:51:20;98517.38;;;14.14;74.28
26719;BME280;14326;50.794;6.060;2022-11-15T12:53:47;98522.66;;;14.19;74.07
26719;BME280;14326;50.794;6.060;2022-11-15T12:56:20;98521.66;;;14.23;74.44
26719;BME280;14326;50.794;6.060;2022-11-15T12:58:49;98511.00;;;14.20;74.21
26719;BME280;14326;50.794;6.060;2022-11-15T13:01:56;98510.97;;;14.21;73.68
26719;BME280;14326;50.794;6.060;2022-11-15T13:04:26;98499.50;;;14.18;74.00
26719;BME280;14326;50.794;6.060;2022-11-15T13:06:56;98489.84;;;14.11;73.09
26719;BME280;14326;50.794;6.060;2022-11-15T13:09:54;98482.72;;;14.11;72.62
26719;BME280;14326;50.794;6.060;2022-11-15T13:12:49;98473.81;;;14.11;72.86
26719;BME280;14326;50.794;6.060;2022-11-15T13:15:38;98467.75;;;14.03;73.65
26719;BME280;14326;50.794;6.060;2022-11-15T13:18:31;98463.19;;;14.08;73.06